Observation data for Aspermont on 05/16/2018      Previous  Date  Next       Current Mesonet Observations  Soil Data  Daily Summary Page  Observations in Plain Language
KASR 160500Z 02010KT 21/17 A3004 RMK A01 T02050166  RH  080%=      5-min Rain = 0
KASR 160505Z 02011KT 20/16 A3005 RMK A01 T01970157  RH  080%=      5-min Rain = 0
KASR 160510Z 02010KT 19/15 A3004 RMK A01 T01890152  RH  081%=      5-min Rain = 0
KASR 160515Z 02008KT 19/15 A3004 RMK A01 T01850151  RH  082%=      5-min Rain = 0
KASR 160520Z 03006G12KT 18/15 A3003 RMK A01 T01830150  RH  082%=      5-min Rain = 0
KASR 160525Z 04005KT 18/15 A3003 RMK A01 T01820149  RH  083%=      5-min Rain = 0
KASR 160530Z 04006KT 18/15 A3003 RMK A01 T01810148  RH  083%=      5-min Rain = 0
KASR 160535Z 05006KT 18/15 A3003 RMK A01 T01810148  RH  082%=      5-min Rain = 0
KASR 160540Z 05006KT 18/15 A3002 RMK A01 T01820147  RH  082%=      5-min Rain = 0
KASR 160545Z 06006KT 18/15 A3002 RMK A01 T01810147  RH  082%=      5-min Rain = 0
KASR 160550Z 07004KT 18/15 A3001 RMK A01 T01810148  RH  083%=      5-min Rain = 0
KASR 160555Z 09005KT 18/15 A30 RMK A01 T01800149  RH  084%=      5-min Rain = 0
KASR 160600Z 08007KT 18/15 A30 RMK A01 T01790150  RH  085%=      5-min Rain = 0
KASR 160605Z 09007KT 18/15 A2999 RMK A01 T01800151  RH  085%=      5-min Rain = 0
KASR 160610Z 10007KT 18/15 A2998 RMK A01 T01790152  RH  086%=      5-min Rain = 0
KASR 160615Z 12007KT 18/15 A2997 RMK A01 T01780152  RH  087%=      5-min Rain = 0
KASR 160620Z 14007KT 18/15 A2997 RMK A01 T01780153  RH  088%=      5-min Rain = 0
KASR 160625Z 13006KT 18/15 A2997 RMK A01 T01760154  RH  089%=      5-min Rain = 0
KASR 160630Z 13006KT 18/15 A2996 RMK A01 T01750154  RH  089%=      5-min Rain = 0
KASR 160635Z 14005KT 18/15 A2996 RMK A01 T01750154  RH  090%=      5-min Rain = 0
KASR 160640Z 13007KT 17/15 A2995 RMK A01 T01740154  RH  090%=      5-min Rain = 0
KASR 160645Z 13007KT 18/15 A2994 RMK A01 T01760153  RH  088%=      5-min Rain = 0
KASR 160650Z 12006KT 18/15 A2994 RMK A01 T01780152  RH  087%=      5-min Rain = 0
KASR 160655Z 12007KT 18/15 A2993 RMK A01 T01790152  RH  086%=      5-min Rain = 0
KASR 160700Z 12006KT 18/15 A2994 RMK A01 T01790151  RH  086%=      5-min Rain = 0
KASR 160705Z 13006KT 18/15 A2993 RMK A01 T01790151  RH  085%=      5-min Rain = 0
KASR 160710Z 12007G12KT 18/15 A2993 RMK A01 T01790150  RH  085%=      5-min Rain = 0
KASR 160715Z 12007KT 18/15 A2993 RMK A01 T01780150  RH  085%=      5-min Rain = 0
KASR 160720Z 12006KT 18/15 A2993 RMK A01 T01780149  RH  085%=      5-min Rain = 0
KASR 160725Z 12007KT 18/15 A2993 RMK A01 T01780148  RH  085%=      5-min Rain = 0
KASR 160730Z 12007KT 18/15 A2993 RMK A01 T01780148  RH  084%=      5-min Rain = 0
KASR 160735Z 13007KT 18/15 A2993 RMK A01 T01780147  RH  084%=      5-min Rain = 0
KASR 160740Z 13008KT 18/15 A2993 RMK A01 T01780146  RH  083%=      5-min Rain = 0
KASR 160745Z 13007KT 18/15 A2993 RMK A01 T01770145  RH  083%=      5-min Rain = 0
KASR 160750Z 13007KT 18/14 A2994 RMK A01 T01770144  RH  082%=      5-min Rain = 0
KASR 160755Z 14006KT 18/14 A2994 RMK A01 T01780144  RH  082%=      5-min Rain = 0
KASR 160800Z 16006KT 18/14 A2995 RMK A01 T01770144  RH  082%=      5-min Rain = 0
KASR 160805Z 16005KT 18/14 A2995 RMK A01 T01760144  RH  084%=      5-min Rain = 0
KASR 160810Z 17005KT 17/14 A2995 RMK A01 T01740144  RH  084%=      5-min Rain = 0
KASR 160815Z 19007KT 17/15 A2996 RMK A01 T01730145  RH  085%=      5-min Rain = 0
KASR 160820Z 19007KT 17/15 A2996 RMK A01 T01740145  RH  085%=      5-min Rain = 0
KASR 160825Z 19003KT 17/14 A2996 RMK A01 T01730144  RH  085%=      5-min Rain = 0
KASR 160830Z 22001KT 17/14 A2996 RMK A01 T01700144  RH  086%=      5-min Rain = 0
KASR 160835Z 26002KT 17/14 A2997 RMK A01 T01700143  RH  086%=      5-min Rain = 0
KASR 160840Z 27003KT 17/14 A2997 RMK A01 T01670143  RH  087%=      5-min Rain = 0
KASR 160845Z 27004KT 17/14 A2997 RMK A01 T01660143  RH  088%=      5-min Rain = 0
KASR 160850Z 25003KT 17/14 A2998 RMK A01 T01650143  RH  089%=      5-min Rain = 0
KASR 160855Z 24002KT 16/14 A2998 RMK A01 T01640143  RH  089%=      5-min Rain = 0
KASR 160900Z 21002KT 16/14 A2997 RMK A01 T01630143  RH  090%=      5-min Rain = 0
KASR 160905Z 22004KT 16/14 A2998 RMK A01 T01640144  RH  090%=      5-min Rain = 0
KASR 160910Z 22003KT 16/14 A2998 RMK A01 T01640144  RH  090%=      5-min Rain = 0
KASR 160915Z 23002KT 16/14 A2998 RMK A01 T01620143  RH  091%=      5-min Rain = 0
KASR 160920Z 29001KT 16/14 A2998 RMK A01 T01610144  RH  091%=      5-min Rain = 0
KASR 160925Z 03003KT 16/14 A2998 RMK A01 T01600143  RH  091%=      5-min Rain = 0
KASR 160930Z 02001KT 16/14 A2997 RMK A01 T01560141  RH  093%=      5-min Rain = 0
KASR 160935Z 22000KT 16/14 A2997 RMK A01 T01550141  RH  093%=      5-min Rain = 0
KASR 160940Z 21003KT 16/14 A2996 RMK A01 T01550142  RH  094%=      5-min Rain = 0
KASR 160945Z 20005KT 16/14 A2996 RMK A01 T01560141  RH  093%=      5-min Rain = 0
KASR 160950Z 20006KT 15/14 A2995 RMK A01 T01540141  RH  093%=      5-min Rain = 0
KASR 160955Z 20005KT 16/15 A2995 RMK A01 T01580145  RH  094%=      5-min Rain = 0
KASR 161000Z 21004KT 17/15 A2995 RMK A01 T01650147  RH  091%=      5-min Rain = 0
KASR 161005Z 20003KT 17/15 A2995 RMK A01 T01680146  RH  089%=      5-min Rain = 0
KASR 161010Z 21003KT 17/14 A2995 RMK A01 T01670144  RH  088%=      5-min Rain = 0
KASR 161015Z 23002KT 17/14 A2995 RMK A01 T01660143  RH  088%=      5-min Rain = 0
KASR 161020Z 24002KT 16/14 A2995 RMK A01 T01620139  RH  088%=      5-min Rain = 0
KASR 161025Z 23001KT 16/14 A2995 RMK A01 T01570138  RH  090%=      5-min Rain = 0
KASR 161030Z 22000KT 16/14 A2995 RMK A01 T01560140  RH  092%=      5-min Rain = 0
KASR 161035Z 10001KT 16/14 A2994 RMK A01 T01560141  RH  093%=      5-min Rain = 0
KASR 161040Z 10002KT 16/14 A2994 RMK A01 T01560142  RH  094%=      5-min Rain = 0
KASR 161045Z 07002KT 16/14 A2995 RMK A01 T01560143  RH  094%=      5-min Rain = 0
KASR 161050Z 04003KT 16/14 A2996 RMK A01 T01570144  RH  094%=      5-min Rain = 0
KASR 161055Z 05003KT 16/15 A2996 RMK A01 T01580145  RH  094%=      5-min Rain = 0
KASR 161100Z 07005KT 17/15 A2996 RMK A01 T01720152  RH  090%=      5-min Rain = 0
KASR 161105Z 06007KT 17/15 A2997 RMK A01 T01710150  RH  090%=      5-min Rain = 0
KASR 161110Z 06005KT 17/15 A2997 RMK A01 T01690150  RH  091%=      5-min Rain = 0
KASR 161115Z 05004KT 17/15 A2997 RMK A01 T01680151  RH  092%=      5-min Rain = 0
KASR 161120Z 06002KT 17/15 A2999 RMK A01 T01680151  RH  092%=      5-min Rain = 0
KASR 161125Z 04004KT 17/15 A2999 RMK A01 T01680151  RH  092%=      5-min Rain = 0
KASR 161130Z 01004KT 17/15 A30 RMK A01 T01670151  RH  092%=      5-min Rain = 0
KASR 161135Z 03003KT 17/15 A30 RMK A01 T01670152  RH  093%=      5-min Rain = 0
KASR 161140Z 07004KT 17/15 A30 RMK A01 T01670152  RH  092%=      5-min Rain = 0
KASR 161145Z 06004KT 17/15 A3001 RMK A01 T01690151  RH  091%=      5-min Rain = 0
KASR 161150Z 04005KT 17/15 A3001 RMK A01 T01700151  RH  091%=      5-min Rain = 0
KASR 161155Z 06004KT 17/15 A3001 RMK A01 T01700151  RH  090%=      5-min Rain = 0
KASR 161200Z 05004KT 17/15 A3001 RMK A01 T01720150  RH  089%=      5-min Rain = 0
KASR 161205Z 02004KT 17/15 A3002 RMK A01 T01730151  RH  089%=      5-min Rain = 0
KASR 161210Z 08003KT 17/15 A3001 RMK A01 T01720151  RH  089%=      5-min Rain = 0
KASR 161215Z 09004KT 17/15 A30 RMK A01 T01720150  RH  089%=      5-min Rain = 0
KASR 161220Z 00006KT 17/15 A3002 RMK A01 T01720150  RH  089%=      5-min Rain = 0
KASR 161225Z 02005KT 17/15 A3003 RMK A01 T01720151  RH  089%=      5-min Rain = 0
KASR 161230Z 09006KT 17/15 A3001 RMK A01 T01730150  RH  088%=      5-min Rain = 0
KASR 161235Z 09008KT 18/15 A30 RMK A01 T01750148  RH  086%=      5-min Rain = 0
KASR 161240Z 00008G15KT 18/15 A3002 RMK A01 T01780148  RH  085%=      5-min Rain = 0
KASR 161245Z 34013KT 18/15 A3004 RMK A01 T01760151  RH  087%=      5-min Rain = 0
KASR 161250Z 01004G11KT 18/15 A3004 RMK A01 T01760152  RH  088%=      5-min Rain = 0
KASR 161255Z 08003KT 18/15 A3004 RMK A01 T01790148  RH  084%=      5-min Rain = 0
KASR 161300Z 32010KT 18/15 A3006 RMK A01 T01800150  RH  085%=      5-min Rain = 0
KASR 161305Z 34006G12KT 18/15 A3006 RMK A01 T01790151  RH  085%=      5-min Rain = 0
KASR 161310Z 12005KT 18/15 A3004 RMK A01 T01780151  RH  086%=      5-min Rain = 0
KASR 161315Z 13006KT 18/15 A3002 RMK A01 T01770151  RH  086%=      5-min Rain = 0.01
KASR 161320Z 15005KT 18/15 A3002 RMK A01 T01780150  RH  085%=      5-min Rain = 0
KASR 161325Z 22004KT 19/15 A3003 RMK A01 T01850146  RH  080%=      5-min Rain = 0
KASR 161330Z 01009G15KT 19/15 A3005 RMK A01 T01870148  RH  080%=      5-min Rain = 0
KASR 161335Z 02008G13KT 19/15 A3005 RMK A01 T01850146  RH  080%=      5-min Rain = 0
KASR 161340Z 06004KT 19/15 A3005 RMK A01 T01880147  RH  079%=      5-min Rain = 0
KASR 161345Z 35006KT 19/15 A3006 RMK A01 T01900148  RH  078%=      5-min Rain = 0
KASR 161350Z 32006KT 19/15 A3006 RMK A01 T01910151  RH  079%=      5-min Rain = 0
KASR 161355Z 33006KT 19/15 A3006 RMK A01 T01900152  RH  081%=      5-min Rain = 0
KASR 161400Z 35006KT 19/15 A3006 RMK A01 T01880151  RH  081%=      5-min Rain = 0
KASR 161405Z 35005KT 19/15 A3006 RMK A01 T01870151  RH  081%=      5-min Rain = 0
KASR 161410Z 35004KT 19/15 A3006 RMK A01 T01860153  RH  083%=      5-min Rain = 0
KASR 161415Z 02002KT 19/15 A3005 RMK A01 T01870153  RH  082%=      5-min Rain = 0
KASR 161420Z 12004KT 19/15 A3004 RMK A01 T01890153  RH  082%=      5-min Rain = 0
KASR 161425Z 14007KT 19/16 A3002 RMK A01 T01910155  RH  081%=      5-min Rain = 0
KASR 161430Z 16009KT 19/16 A3001 RMK A01 T01920155  RH  081%=      5-min Rain = 0
KASR 161435Z 17009KT 20/16 A30 RMK A01 T02000158  RH  079%=      5-min Rain = 0
KASR 161440Z 18011KT 21/16 A2999 RMK A01 T02080159  RH  075%=      5-min Rain = 0
KASR 161445Z 18011KT 22/16 A2999 RMK A01 T02150161  RH  073%=      5-min Rain = 0
KASR 161450Z 17013KT 22/15 A2999 RMK A01 T02240146  RH  063%=      5-min Rain = 0
KASR 161455Z 17012KT 23/14 A2999 RMK A01 T02270143  RH  060%=      5-min Rain = 0
KASR 161500Z 17009KT 23/14 A30 RMK A01 T02330143  RH  058%=      5-min Rain = 0
KASR 161505Z 18007G12KT 23/14 A3001 RMK A01 T02330140  RH  057%=      5-min Rain = 0
KASR 161510Z 12003KT 23/14 A3002 RMK A01 T02340138  RH  056%=      5-min Rain = 0
KASR 161515Z 03005KT 24/14 A3003 RMK A01 T02390138  RH  055%=      5-min Rain = 0
KASR 161520Z 03007KT 25/14 A3003 RMK A01 T02450137  RH  052%=      5-min Rain = 0
KASR 161525Z 01008G15KT 25/14 A3003 RMK A01 T02510138  RH  050%=      5-min Rain = 0
KASR 161530Z 02009G16KT 25/14 A3003 RMK A01 T02540138  RH  050%=      5-min Rain = 0
KASR 161535Z 02009G15KT 25/14 A3003 RMK A01 T02540135  RH  049%=      5-min Rain = 0
KASR 161540Z 01010G16KT 25/14 A3003 RMK A01 T02480136  RH  051%=      5-min Rain = 0
KASR 161545Z 02009G16KT 25/14 A3003 RMK A01 T02450140  RH  053%=      5-min Rain = 0
KASR 161550Z 02010G15KT 25/14 A3004 RMK A01 T02510138  RH  051%=      5-min Rain = 0
KASR 161555Z 00008KT 25/13 A3003 RMK A01 T02510133  RH  049%=      5-min Rain = 0
KASR 161600Z 02007G12KT 25/13 A3003 RMK A01 T02540132  RH  048%=      5-min Rain = 0
KASR 161605Z 01008G13KT 25/13 A3004 RMK A01 T02540134  RH  048%=      5-min Rain = 0
KASR 161610Z 03008G14KT 26/13 A3004 RMK A01 T02580134  RH  047%=      5-min Rain = 0
KASR 161615Z 03008G13KT 26/13 A3004 RMK A01 T02560134  RH  048%=      5-min Rain = 0
KASR 161620Z 03008G14KT 26/14 A3004 RMK A01 T02600136  RH  047%=      5-min Rain = 0
KASR 161625Z 04009KT 26/14 A3004 RMK A01 T02620137  RH  047%=      5-min Rain = 0
KASR 161630Z 02008G15KT 27/14 A3004 RMK A01 T02650139  RH  047%=      5-min Rain = 0
KASR 161635Z 00010G15KT 26/14 A3004 RMK A01 T02630135  RH  046%=      5-min Rain = 0
KASR 161640Z 02009KT 27/13 A3004 RMK A01 T02670129  RH  043%=      5-min Rain = 0
KASR 161645Z 03006G11KT 27/13 A3004 RMK A01 T02690127  RH  042%=      5-min Rain = 0
KASR 161650Z 03007G12KT 27/14 A3004 RMK A01 T02720141  RH  045%=      5-min Rain = 0
KASR 161655Z 03007G12KT 27/14 A3004 RMK A01 T02740141  RH  045%=      5-min Rain = 0
KASR 161700Z 01007KT 27/14 A3004 RMK A01 T02720144  RH  047%=      5-min Rain = 0
KASR 161705Z 02008G13KT 27/13 A3003 RMK A01 T02720134  RH  044%=      5-min Rain = 0
KASR 161710Z 02005G11KT 28/13 A3003 RMK A01 T02780132  RH  041%=      5-min Rain = 0
KASR 161715Z 00008KT 27/12 A3003 RMK A01 T02710123  RH  041%=      5-min Rain = 0
KASR 161720Z 01007KT 27/12 A3003 RMK A01 T02730121  RH  040%=      5-min Rain = 0
KASR 161725Z 04006KT 28/12 A3003 RMK A01 T02760116  RH  038%=      5-min Rain = 0
KASR 161730Z 04006G11KT 29/12 A3003 RMK A01 T02850124  RH  038%=      5-min Rain = 0
KASR 161735Z 03008KT 29/12 A3002 RMK A01 T02850124  RH  038%=      5-min Rain = 0
KASR 161740Z 04009G14KT 28/13 A3002 RMK A01 T02790126  RH  040%=      5-min Rain = 0
KASR 161745Z 03007KT 27/12 A3002 RMK A01 T02720123  RH  040%=      5-min Rain = 0
KASR 161750Z 03008KT 28/13 A3002 RMK A01 T02750126  RH  040%=      5-min Rain = 0
KASR 161755Z 04008G13KT 28/12 A3002 RMK A01 T02790120  RH  038%=      5-min Rain = 0
KASR 161800Z 04007KT 28/12 A3002 RMK A01 T02800120  RH  038%=      5-min Rain = 0
KASR 161805Z 04006KT 28/12 A3002 RMK A01 T02810122  RH  038%=      5-min Rain = 0
KASR 161810Z 06007G13KT 29/12 A3002 RMK A01 T02860115  RH  035%=      5-min Rain = 0
KASR 161815Z 04005G10KT 28/11 A3001 RMK A01 T02810112  RH  036%=      5-min Rain = 0
KASR 161820Z 04005KT 28/11 A3001 RMK A01 T02810114  RH  036%=      5-min Rain = 0
KASR 161825Z 06007G12KT 28/11 A3001 RMK A01 T02830113  RH  035%=      5-min Rain = 0
KASR 161830Z 04007KT 28/12 A3001 RMK A01 T02820119  RH  037%=      5-min Rain = 0
KASR 161835Z 05005G10KT 29/13 A30 RMK A01 T02870128  RH  038%=      5-min Rain = 0
KASR 161840Z 06006KT 28/12 A30 RMK A01 T02830123  RH  038%=      5-min Rain = 0
KASR 161845Z 08006KT 28/13 A30 RMK A01 T02800126  RH  039%=      5-min Rain = 0
KASR 161850Z 06004KT 29/12 A30 RMK A01 T02850123  RH  037%=      5-min Rain = 0
KASR 161855Z 07005KT 28/12 A30 RMK A01 T02840124  RH  038%=      5-min Rain = 0
KASR 161900Z 07006G11KT 29/12 A2999 RMK A01 T02900123  RH  037%=      5-min Rain = 0
KASR 161905Z 09004G9KT 29/12 A2999 RMK A01 T02910121  RH  036%=      5-min Rain = 0
KASR 161910Z 06005KT 30/12 A2999 RMK A01 T02950120  RH  035%=      5-min Rain = 0
KASR 161915Z 04003KT 30/12 A2998 RMK A01 T02990122  RH  034%=      5-min Rain = 0
KASR 161920Z 10006G12KT 30/12 A2998 RMK A01 T03040116  RH  032%=      5-min Rain = 0
KASR 161925Z 10005G11KT 30/12 A2998 RMK A01 T03010119  RH  033%=      5-min Rain = 0
KASR 161930Z 12004KT 31/12 A2997 RMK A01 T03070120  RH  032%=      5-min Rain = 0
KASR 161935Z 07004G9KT 31/12 A2997 RMK A01 T03100123  RH  032%=      5-min Rain = 0
KASR 161940Z 10004G9KT 31/12 A2997 RMK A01 T03130124  RH  032%=      5-min Rain = 0
KASR 161945Z 11005G10KT 31/12 A2997 RMK A01 T03140120  RH  031%=      5-min Rain = 0
KASR 161950Z 11004KT 31/12 A2996 RMK A01 T03090117  RH  031%=      5-min Rain = 0
KASR 161955Z 14004G9KT 31/12 A2996 RMK A01 T03100115  RH  031%=      5-min Rain = 0
KASR 162000Z 14005KT 32/11 A2996 RMK A01 T03170106  RH  028%=      5-min Rain = 0
KASR 162005Z 13005KT 32/11 A2995 RMK A01 T03210109  RH  028%=      5-min Rain = 0
KASR 162010Z 10004G9KT 32/11 A2995 RMK A01 T03180113  RH  029%=      5-min Rain = 0
KASR 162015Z 11006G11KT 32/11 A2995 RMK A01 T03220110  RH  028%=      5-min Rain = 0
KASR 162020Z 12003KT 32/10 A2995 RMK A01 T03220101  RH  026%=      5-min Rain = 0
KASR 162025Z 12007G14KT 33/11 A2994 RMK A01 T03250107  RH  027%=      5-min Rain = 0
KASR 162030Z 11005KT 33/11 A2994 RMK A01 T03250110  RH  027%=      5-min Rain = 0
KASR 162035Z 11007KT 33/11 A2994 RMK A01 T03300111  RH  027%=      5-min Rain = 0
KASR 162040Z 09006G13KT 33/11 A2993 RMK A01 T03250111  RH  028%=      5-min Rain = 0
KASR 162045Z 10007G13KT 33/10 A2993 RMK A01 T03310098  RH  024%=      5-min Rain = 0
KASR 162050Z 08007KT 33/09 A2992 RMK A01 T03310093  RH  023%=      5-min Rain = 0
KASR 162055Z 10009G15KT 33/09 A2992 RMK A01 T03330091  RH  023%=      5-min Rain = 0
KASR 162100Z 11008G14KT 34/09 A2992 RMK A01 T03350089  RH  022%=      5-min Rain = 0
KASR 162105Z 12007G13KT 33/09 A2992 RMK A01 T03340085  RH  022%=      5-min Rain = 0
KASR 162110Z 09008G13KT 33/09 A2992 RMK A01 T03330093  RH  023%=      5-min Rain = 0
KASR 162115Z 11006KT 33/10 A2992 RMK A01 T03300099  RH  025%=      5-min Rain = 0
KASR 162120Z 10008G14KT 33/09 A2992 RMK A01 T03340089  RH  023%=      5-min Rain = 0
KASR 162125Z 10006KT 33/09 A2992 RMK A01 T03340093  RH  023%=      5-min Rain = 0
KASR 162130Z 08009G14KT 33/09 A2992 RMK A01 T03340093  RH  023%=      5-min Rain = 0
KASR 162135Z 09008G14KT 34/10 A2992 RMK A01 T03350095  RH  023%=      5-min Rain = 0
KASR 162140Z 08007G13KT 33/09 A2992 RMK A01 T03310093  RH  023%=      5-min Rain = 0
KASR 162145Z 11008KT 34/08 A2992 RMK A01 T03350083  RH  022%=      5-min Rain = 0
KASR 162150Z 10008G13KT 34/09 A2992 RMK A01 T03350089  RH  022%=      5-min Rain = 0
KASR 162155Z 10007G13KT 33/09 A2992 RMK A01 T03330092  RH  023%=      5-min Rain = 0
KASR 162200Z 10005KT 34/09 A2992 RMK A01 T03380091  RH  022%=      5-min Rain = 0
KASR 162205Z 11007G12KT 34/09 A2992 RMK A01 T03360090  RH  022%=      5-min Rain = 0
KASR 162210Z 09004KT 34/09 A2992 RMK A01 T03350092  RH  023%=      5-min Rain = 0
KASR 162215Z 10007G12KT 34/09 A2992 RMK A01 T03380093  RH  023%=      5-min Rain = 0
KASR 162220Z 14006KT 34/10 A2991 RMK A01 T03360095  RH  023%=      5-min Rain = 0
KASR 162225Z 10005G12KT 33/09 A2991 RMK A01 T03320094  RH  023%=      5-min Rain = 0
KASR 162230Z 09006KT 33/10 A2991 RMK A01 T03340099  RH  024%=      5-min Rain = 0
KASR 162235Z 13005G10KT 34/10 A2991 RMK A01 T03360100  RH  024%=      5-min Rain = 0
KASR 162240Z 14005G10KT 34/10 A2991 RMK A01 T03350098  RH  024%=      5-min Rain = 0
KASR 162245Z 12007KT 34/10 A2991 RMK A01 T03360100  RH  024%=      5-min Rain = 0
KASR 162250Z 14008G14KT 34/10 A2991 RMK A01 T03350098  RH  024%=      5-min Rain = 0
KASR 162255Z 12005G11KT 34/10 A2991 RMK A01 T03350096  RH  023%=      5-min Rain = 0
KASR 162300Z 13006G12KT 33/10 A2991 RMK A01 T03340098  RH  024%=      5-min Rain = 0
KASR 162305Z 15007KT 34/10 A2991 RMK A01 T03350098  RH  024%=      5-min Rain = 0
KASR 162310Z 13006G11KT 33/10 A2991 RMK A01 T03320095  RH  024%=      5-min Rain = 0
KASR 162315Z 13005KT 33/10 A2991 RMK A01 T03320095  RH  024%=      5-min Rain = 0
KASR 162320Z 09005G12KT 33/10 A2991 RMK A01 T03320098  RH  024%=      5-min Rain = 0
KASR 162325Z 15005G13KT 33/11 A2991 RMK A01 T03310107  RH  026%=      5-min Rain = 0
KASR 162330Z 12006G12KT 33/11 A2991 RMK A01 T03300107  RH  026%=      5-min Rain = 0
KASR 162335Z 10006KT 33/11 A2991 RMK A01 T03320110  RH  026%=      5-min Rain = 0
KASR 162340Z 07006KT 33/11 A299 RMK A01 T03310108  RH  026%=      5-min Rain = 0
KASR 162345Z 12007G13KT 33/11 A299 RMK A01 T03300110  RH  027%=      5-min Rain = 0
KASR 162350Z 12004KT 33/11 A299 RMK A01 T03280109  RH  027%=      5-min Rain = 0
KASR 162355Z 13007G12KT 33/10 A299 RMK A01 T03280103  RH  026%=      5-min Rain = 0
KASR 170000Z 11006KT 33/10 A299 RMK A01 T03280101  RH  025%=      5-min Rain = 0
KASR 170005Z 09006KT 33/10 A299 RMK A01 T03270104  RH  026%=      5-min Rain = 0
KASR 170010Z 14005KT 33/10 A299 RMK A01 T03260098  RH  025%=      5-min Rain = 0
KASR 170015Z 14008KT 33/10 A2989 RMK A01 T03250098  RH  025%=      5-min Rain = 0
KASR 170020Z 12007KT 32/10 A2989 RMK A01 T03240097  RH  025%=      5-min Rain = 0
KASR 170025Z 13006KT 32/09 A2989 RMK A01 T03230092  RH  024%=      5-min Rain = 0
KASR 170030Z 12006KT 32/09 A2989 RMK A01 T03220089  RH  024%=      5-min Rain = 0
KASR 170035Z 12005KT 32/09 A2989 RMK A01 T03220091  RH  024%=      5-min Rain = 0
KASR 170040Z 11006G11KT 32/09 A2989 RMK A01 T03200093  RH  025%=      5-min Rain = 0
KASR 170045Z 12008KT 32/09 A2989 RMK A01 T03180094  RH  025%=      5-min Rain = 0
KASR 170050Z 12007KT 32/10 A2989 RMK A01 T03160095  RH  026%=      5-min Rain = 0
KASR 170055Z 10007G13KT 31/10 A2989 RMK A01 T03140100  RH  027%=      5-min Rain = 0
KASR 170100Z 07011G18KT 30/14 A2989 RMK A01 T03040141  RH  038%=      5-min Rain = 0
KASR 170105Z 08012G18KT 30/14 A2989 RMK A01 T02960144  RH  040%=      5-min Rain = 0
KASR 170110Z 07011G18KT 29/14 A2989 RMK A01 T02920144  RH  041%=      5-min Rain = 0
KASR 170115Z 07011G18KT 29/14 A2989 RMK A01 T02900144  RH  042%=      5-min Rain = 0
KASR 170120Z 07011G16KT 29/15 A2989 RMK A01 T02870145  RH  043%=      5-min Rain = 0
KASR 170125Z 07010G17KT 29/14 A299 RMK A01 T02850144  RH  043%=      5-min Rain = 0
KASR 170130Z 08009G15KT 28/15 A299 RMK A01 T02820145  RH  044%=      5-min Rain = 0
KASR 170135Z 08011G18KT 28/15 A299 RMK A01 T02800149  RH  045%=      5-min Rain = 0
KASR 170140Z 08010G16KT 28/15 A299 RMK A01 T02790150  RH  046%=      5-min Rain = 0
KASR 170145Z 08008KT 28/15 A2991 RMK A01 T02770151  RH  047%=      5-min Rain = 0
KASR 170150Z 08008KT 27/15 A2991 RMK A01 T02740152  RH  048%=      5-min Rain = 0
KASR 170155Z 08007KT 27/15 A2991 RMK A01 T02720152  RH  049%=      5-min Rain = 0
KASR 170200Z 08010KT 27/15 A2991 RMK A01 T02710152  RH  049%=      5-min Rain = 0
KASR 170205Z 08008G14KT 27/15 A2991 RMK A01 T02700152  RH  049%=      5-min Rain = 0
KASR 170210Z 08008KT 27/15 A2991 RMK A01 T02680151  RH  050%=      5-min Rain = 0
KASR 170215Z 09008KT 27/15 A2992 RMK A01 T02660150  RH  050%=      5-min Rain = 0
KASR 170220Z 08007G12KT 26/15 A2992 RMK A01 T02640149  RH  050%=      5-min Rain = 0
KASR 170225Z 08008G13KT 26/15 A2992 RMK A01 T02630148  RH  050%=      5-min Rain = 0
KASR 170230Z 08008KT 26/15 A2992 RMK A01 T02620146  RH  050%=      5-min Rain = 0
KASR 170235Z 09007KT 26/15 A2992 RMK A01 T02590145  RH  051%=      5-min Rain = 0
KASR 170240Z 08008KT 26/15 A2992 RMK A01 T02570145  RH  051%=      5-min Rain = 0
KASR 170245Z 09008G13KT 26/14 A2992 RMK A01 T02560142  RH  051%=      5-min Rain = 0
KASR 170250Z 09009KT 26/14 A2992 RMK A01 T02550140  RH  050%=      5-min Rain = 0
KASR 170255Z 09008G13KT 25/14 A2992 RMK A01 T02540138  RH  050%=      5-min Rain = 0
KASR 170300Z 09009KT 25/14 A2992 RMK A01 T02520138  RH  050%=      5-min Rain = 0
KASR 170305Z 08008KT 25/14 A2992 RMK A01 T02500138  RH  051%=      5-min Rain = 0
KASR 170310Z 09007KT 25/14 A2993 RMK A01 T02480138  RH  051%=      5-min Rain = 0
KASR 170315Z 08007KT 25/14 A2993 RMK A01 T02460138  RH  052%=      5-min Rain = 0
KASR 170320Z 08006KT 24/14 A2993 RMK A01 T02440138  RH  052%=      5-min Rain = 0
KASR 170325Z 09007KT 24/14 A2993 RMK A01 T02430138  RH  053%=      5-min Rain = 0
KASR 170330Z 09007G12KT 24/14 A2993 RMK A01 T02430138  RH  053%=      5-min Rain = 0
KASR 170335Z 09007KT 24/14 A2993 RMK A01 T02410138  RH  053%=      5-min Rain = 0
KASR 170340Z 09006KT 24/14 A2993 RMK A01 T02390137  RH  054%=      5-min Rain = 0
KASR 170345Z 09006KT 24/14 A2993 RMK A01 T02370137  RH  055%=      5-min Rain = 0
KASR 170350Z 09006G11KT 24/14 A2994 RMK A01 T02360137  RH  055%=      5-min Rain = 0
KASR 170355Z 09006KT 24/14 A2994 RMK A01 T02360136  RH  055%=      5-min Rain = 0
KASR 170400Z 09008G13KT 24/14 A2994 RMK A01 T02360135  RH  054%=      5-min Rain = 0
KASR 170405Z 09007KT 24/13 A2994 RMK A01 T02350134  RH  054%=      5-min Rain = 0
KASR 170410Z 09007KT 24/13 A2994 RMK A01 T02350134  RH  054%=      5-min Rain = 0
KASR 170415Z 10007KT 23/13 A2994 RMK A01 T02340134  RH  054%=      5-min Rain = 0
KASR 170420Z 10005G10KT 23/13 A2994 RMK A01 T02330134  RH  055%=      5-min Rain = 0
KASR 170425Z 10006G11KT 23/13 A2994 RMK A01 T02310134  RH  055%=      5-min Rain = 0
KASR 170430Z 10007KT 23/13 A2994 RMK A01 T02310134  RH  055%=      5-min Rain = 0
KASR 170435Z 10007KT 23/13 A2994 RMK A01 T02310134  RH  056%=      5-min Rain = 0
KASR 170440Z 10007KT 23/13 A2994 RMK A01 T02290134  RH  056%=      5-min Rain = 0
KASR 170445Z 11006G11KT 23/14 A2994 RMK A01 T02290135  RH  056%=      5-min Rain = 0
KASR 170450Z 12006G11KT 23/14 A2994 RMK A01 T02290135  RH  057%=      5-min Rain = 0
KASR 170455Z 13006KT 23/14 A2994 RMK A01 T02280136  RH  057%=      5-min Rain = 0

Page generated in 0.0095 seconds.